createdAt,value
2018-04-08T00:00:22.774Z,87.12
2018-04-08T00:01:22.972Z,87.54
2018-04-08T00:02:23.852Z,87.26
2018-04-08T00:03:23.457Z,87.79
2018-04-08T00:04:23.953Z,87.31
2018-04-08T00:05:23.717Z,87.69
2018-04-08T00:06:23.655Z,87.21
2018-04-08T00:07:23.737Z,87.4
2018-04-08T00:08:23.421Z,87.88
2018-04-08T00:09:23.476Z,88.07
2018-04-08T00:10:24.494Z,87.88
2018-04-08T00:11:24.207Z,87.88
2018-04-08T00:12:24.785Z,87.88
2018-04-08T00:13:24.750Z,87.79
2018-04-08T00:14:24.463Z,87.74
2018-04-08T00:15:24.256Z,87.69
2018-04-08T00:16:24.287Z,87.98
2018-04-08T00:17:24.317Z,87.98
2018-04-08T00:18:24.623Z,87.64
2018-04-08T00:19:24.801Z,87.79
2018-04-08T00:20:25.177Z,87.93
2018-04-08T00:21:24.836Z,87.35
2018-04-08T00:22:25.070Z,88.02
2018-04-08T00:23:25.195Z,87.93
2018-04-08T00:24:25.511Z,87.93
2018-04-08T00:25:25.650Z,88.31
2018-04-08T00:26:25.678Z,88.26
2018-04-08T00:27:25.845Z,88.21
2018-04-08T00:28:26.262Z,88.4
2018-04-08T00:29:26.681Z,88.21
2018-04-08T00:30:26.714Z,88.4
2018-04-08T00:31:26.734Z,88.31
2018-04-08T00:32:26.760Z,88.31
2018-04-08T00:33:26.516Z,88.02
2018-04-08T00:34:26.671Z,88.21
2018-04-08T00:35:27.033Z,88.31
2018-04-08T00:36:28.097Z,88.21
2018-04-08T00:37:27.698Z,88.12
2018-04-08T00:38:28.104Z,88.88
2018-04-08T00:39:27.989Z,88.74
2018-04-08T00:40:28.552Z,89.17
2018-04-08T00:41:28.778Z,89.26
2018-04-08T00:42:29.088Z,89.12
2018-04-08T00:43:29.469Z,89.26
2018-04-08T00:44:29.580Z,89.4
2018-04-08T00:45:30.145Z,89.89
2018-04-08T00:46:29.885Z,89.6
2018-04-08T00:47:30.645Z,89.6
2018-04-08T00:48:30.799Z,89.6
2018-04-08T00:49:30.833Z,89.6
2018-04-08T00:50:30.566Z,89.6
2018-04-08T00:51:30.911Z,89.4
2018-04-08T00:52:31.092Z,89.6
2018-04-08T00:53:31.087Z,89.45
2018-04-08T00:54:31.456Z,89.54
2018-04-08T00:55:31.873Z,89.64
2018-04-08T00:56:31.621Z,89.89
2018-04-08T00:57:32.068Z,89.5
2018-04-08T00:58:31.947Z,89.98
2018-04-08T00:59:32.282Z,90.08
2018-04-08T01:00:32.757Z,90.08
2018-04-08T01:01:32.558Z,90.17
2018-04-08T01:02:32.998Z,90.36
2018-04-08T01:03:33.393Z,90.17
2018-04-08T01:04:33.386Z,90.74
2018-04-08T01:05:33.430Z,90.64
2018-04-08T01:06:33.552Z,91.03
2018-04-08T01:07:33.838Z,91.41
2018-04-08T01:08:33.611Z,91.31
2018-04-08T01:09:34.241Z,91.13
2018-04-08T01:10:34.610Z,91.6
2018-04-08T01:11:34.711Z,91.79
2018-04-08T01:12:34.417Z,92.27
2018-04-08T01:13:34.414Z,92.27
2018-04-08T01:14:35.031Z,92.13
2018-04-08T01:15:34.812Z,92.69
2018-04-08T01:16:34.837Z,92.79
2018-04-08T01:17:35.196Z,92.5
2018-04-08T01:18:35.184Z,92.69
2018-04-08T01:19:34.955Z,92.6
2018-04-08T01:20:35.522Z,92.41
2018-04-08T01:21:35.654Z,92.69
2018-04-08T01:22:35.651Z,92.5
2018-04-08T01:23:35.626Z,92.5
2018-04-08T01:24:35.693Z,92.89
2018-04-08T01:25:35.719Z,92.6
2018-04-08T01:26:36.240Z,92.32
2018-04-08T01:27:36.415Z,92.89
2018-04-08T01:28:35.991Z,92.5
2018-04-08T01:29:36.292Z,92.69
2018-04-08T01:30:36.623Z,93.55
2018-04-08T01:31:36.665Z,93.17
2018-04-08T01:32:36.691Z,93.84
2018-04-08T01:33:36.466Z,94.32
2018-04-08T01:34:36.806Z,94.13
2018-04-08T01:35:37.192Z,94.13
2018-04-08T01:36:37.212Z,93.98
2018-04-08T01:37:37.276Z,93.98
2018-04-08T01:38:37.297Z,94.56
2018-04-08T01:39:37.309Z,94.65
2018-04-08T01:40:37.342Z,94.93
2018-04-08T01:41:37.368Z,95.03
2018-04-08T01:42:37.690Z,95.03
2018-04-08T01:43:37.496Z,94.84
2018-04-08T01:44:37.438Z,94.93
2018-04-08T01:45:37.490Z,95.03
2018-04-08T01:46:37.583Z,94.37
2018-04-08T01:47:37.277Z,94.46
2018-04-08T01:48:37.678Z,94.65
2018-04-08T01:49:37.334Z,95.41
2018-04-08T01:50:37.398Z,95.51
2018-04-08T01:51:37.977Z,95.12
2018-04-08T01:52:38.266Z,95.7
2018-04-08T01:53:38.293Z,95.32
2018-04-08T01:54:38.096Z,95.7
2018-04-08T01:55:38.143Z,96.08
2018-04-08T01:56:38.697Z,95.7
2018-04-08T01:57:38.426Z,95.51
2018-04-08T01:58:38.458Z,96.17
2018-04-08T01:59:38.489Z,95.89
2018-04-08T02:00:38.500Z,95.6
2018-04-08T02:01:38.552Z,95.41
2018-04-08T02:02:38.287Z,95.7
2018-04-08T02:03:38.602Z,95.7
2018-04-08T02:04:38.643Z,95.41
2018-04-08T02:05:38.379Z,95.98
2018-04-08T02:06:38.732Z,95.7
2018-04-08T02:07:38.701Z,95.6
2018-04-08T02:08:38.737Z,96.36
2018-04-08T02:09:38.496Z,95.89
2018-04-08T02:10:38.792Z,95.98
2018-04-08T02:11:38.852Z,96.17
2018-04-08T02:12:38.612Z,96.17
2018-04-08T02:13:39.020Z,96.27
2018-04-08T02:14:39.309Z,96.08
2018-04-08T02:15:39.354Z,96.65
2018-04-08T02:16:39.390Z,96.27
2018-04-08T02:17:39.427Z,96.36
2018-04-08T02:18:39.168Z,96.08
2018-04-08T02:19:39.486Z,96.17
2018-04-08T02:20:39.237Z,96.27
2018-04-08T02:21:39.538Z,96.46
2018-04-08T02:22:39.562Z,96.36
2018-04-08T02:23:39.591Z,96.55
2018-04-08T02:24:39.622Z,97.03
2018-04-08T02:25:39.654Z,97.13
2018-04-08T02:26:39.404Z,97.22
2018-04-08T02:27:39.756Z,97.13
2018-04-08T02:28:39.792Z,97.08
2018-04-08T02:29:39.820Z,97.22
2018-04-08T02:30:39.850Z,97.36
2018-04-08T02:31:39.879Z,97.08
2018-04-08T02:32:43.197Z,96.84
2018-04-08T02:33:42.938Z,97.6
2018-04-08T02:34:43.255Z,97.99
2018-04-08T02:35:42.994Z,97.84
2018-04-08T02:36:43.305Z,97.41
2018-04-08T02:37:43.696Z,97.74
2018-04-08T02:38:43.714Z,97.84
2018-04-08T02:39:43.729Z,98.03
2018-04-08T02:40:43.778Z,97.55
2018-04-08T02:41:43.787Z,97.84
2018-04-08T02:42:43.810Z,97.74
2018-04-08T02:43:43.835Z,97.93
2018-04-08T02:44:43.884Z,98.03
2018-04-08T02:45:43.911Z,98.13
2018-04-08T02:46:43.929Z,97.65
2018-04-08T02:47:43.685Z,97.93
2018-04-08T02:48:43.994Z,98.03
2018-04-08T02:49:44.045Z,97.74
2018-04-08T02:50:44.052Z,98.03
2018-04-08T02:51:43.804Z,98.03
2018-04-08T02:52:44.308Z,97.93
2018-04-08T02:53:44.501Z,97.93
2018-04-08T02:54:44.379Z,98.13
2018-04-08T02:55:44.118Z,97.65
2018-04-08T02:56:44.650Z,98.13
2018-04-08T02:57:44.710Z,98.13
2018-04-08T02:58:44.924Z,98.22
2018-04-08T02:59:44.666Z,98.6
2018-04-08T03:00:45.136Z,98.41
2018-04-08T03:01:45.580Z,98.6
2018-04-08T03:02:45.614Z,98.69
2018-04-08T03:03:45.889Z,98.5
2018-04-08T03:04:46.292Z,98.6
2018-04-08T03:05:46.600Z,98.69
2018-04-08T03:06:46.297Z,98.32
2018-04-08T03:07:46.985Z,98.6
2018-04-08T03:08:46.998Z,98.5
2018-04-08T03:09:46.778Z,98.5
2018-04-08T03:10:47.452Z,98.6
2018-04-08T03:11:47.925Z,98.41
2018-04-08T03:12:48.146Z,98.32
2018-04-08T03:13:48.517Z,98.22
2018-04-08T03:14:48.690Z,98.32
2018-04-08T03:15:48.728Z,98.41
2018-04-08T03:16:48.739Z,98.13
2018-04-08T03:17:48.574Z,98.6
2018-04-08T03:18:48.519Z,98.32
2018-04-08T03:19:48.822Z,98.41
2018-04-08T03:20:48.611Z,97.84
2018-04-08T03:21:49.311Z,98.13
2018-04-08T03:22:49.306Z,97.84
2018-04-08T03:23:49.367Z,98.03
2018-04-08T03:24:49.406Z,98.03
2018-04-08T03:25:49.122Z,97.84
2018-04-08T03:26:49.416Z,98.41
2018-04-08T03:27:49.914Z,98.6
2018-04-08T03:28:49.884Z,98.41
2018-04-08T03:29:50.312Z,98.6
2018-04-08T03:30:50.359Z,98.41
2018-04-08T03:31:50.681Z,98.41
2018-04-08T03:32:50.631Z,98.32
2018-04-08T03:33:50.672Z,98.32
2018-04-08T03:34:50.647Z,98.6
2018-04-08T03:35:50.569Z,98.5
2018-04-08T03:36:51.038Z,98.32
2018-04-08T03:37:51.582Z,98.98
2018-04-08T03:38:51.492Z,98.6
2018-04-08T03:39:51.280Z,98.69
2018-04-08T03:40:51.600Z,98.5
2018-04-08T03:41:51.620Z,98.41
2018-04-08T03:42:51.702Z,98.5
2018-04-08T03:43:52.016Z,98.32
2018-04-08T03:44:52.378Z,98.13
2018-04-08T03:45:52.142Z,98.41
2018-04-08T03:46:52.468Z,98.5
2018-04-08T03:47:52.497Z,98.6
2018-04-08T03:48:52.567Z,98.41
2018-04-08T03:49:52.673Z,98.6
2018-04-08T03:50:52.456Z,98.5
2018-04-08T03:51:52.658Z,98.6
2018-04-08T03:52:52.701Z,98.46
2018-04-08T03:53:53.328Z,98.55
2018-04-08T03:54:52.719Z,98.65
2018-04-08T03:55:52.572Z,98.55
2018-04-08T03:56:52.739Z,98.83
2018-04-08T03:57:52.741Z,98.55
2018-04-08T03:58:53.190Z,98.74
2018-04-08T03:59:52.912Z,98.55
2018-04-08T04:00:53.820Z,98.74
2018-04-08T04:01:53.828Z,98.36
2018-04-08T04:02:53.511Z,99.02
2018-04-08T04:03:53.839Z,98.93
2018-04-08T04:04:53.209Z,98.55
2018-04-08T04:05:53.234Z,98.55
2018-04-08T04:06:53.843Z,98.36
2018-04-08T04:07:53.882Z,98.83
2018-04-08T04:08:53.592Z,98.36
2018-04-08T04:09:54.001Z,98.65
2018-04-08T04:10:54.339Z,98.55
2018-04-08T04:11:54.328Z,98.55
2018-04-08T04:12:54.374Z,98.74
2018-04-08T04:13:54.441Z,98.55
2018-04-08T04:14:54.448Z,98.83
2018-04-08T04:15:54.848Z,98.46
2018-04-08T04:16:54.987Z,98.46
2018-04-08T04:17:54.916Z,98.55
2018-04-08T04:18:54.888Z,98.27
2018-04-08T04:19:54.935Z,98.17
2018-04-08T04:20:54.665Z,97.69
2018-04-08T04:21:54.598Z,97.69
2018-04-08T04:22:54.880Z,97.88
2018-04-08T04:23:54.673Z,97.5
2018-04-08T04:24:54.661Z,97.88
2018-04-08T04:25:55.200Z,97.69
2018-04-08T04:26:55.526Z,97.69
2018-04-08T04:27:55.922Z,97.79
2018-04-08T04:28:55.588Z,97.41
2018-04-08T04:29:55.679Z,97.79
2018-04-08T04:30:55.957Z,98.17
2018-04-08T04:31:56.039Z,97.69
2018-04-08T04:32:56.353Z,97.5
2018-04-08T04:33:56.365Z,97.6
2018-04-08T04:34:56.713Z,97.6
2018-04-08T04:35:56.427Z,97.5
2018-04-08T04:36:56.260Z,97.69
2018-04-08T04:37:56.490Z,97.69
2018-04-08T04:38:56.244Z,97.6
2018-04-08T04:39:56.585Z,97.88
2018-04-08T04:40:56.992Z,97.6
2018-04-08T04:41:57.002Z,97.69
2018-04-08T04:42:57.050Z,97.69
2018-04-08T04:43:57.397Z,97.5
2018-04-08T04:44:57.425Z,97.5
2018-04-08T04:45:57.166Z,97.69
2018-04-08T04:46:57.480Z,97.6
2018-04-08T04:47:57.783Z,97.5
2018-04-08T04:48:57.884Z,97.69
2018-04-08T04:49:58.181Z,97.98
2018-04-08T04:50:58.575Z,97.6
2018-04-08T04:51:58.637Z,97.79
2018-04-08T04:52:58.950Z,97.79
2018-04-08T04:53:58.986Z,97.98
2018-04-08T04:54:59.006Z,97.6
2018-04-08T04:55:59.126Z,97.41
2018-04-08T04:56:59.191Z,97.79
2018-04-08T04:57:59.207Z,97.79
2018-04-08T04:58:59.008Z,97.79
2018-04-08T04:59:59.317Z,97.88
2018-04-08T05:00:59.340Z,97.79
2018-04-08T05:01:59.338Z,97.98
2018-04-08T05:02:59.526Z,97.69
2018-04-08T05:03:59.556Z,97.6
2018-04-08T05:04:59.582Z,97.5
2018-04-08T05:05:59.390Z,97.79
2018-04-08T05:07:00.152Z,97.98
2018-04-08T05:08:00.254Z,97.88
2018-04-08T05:09:00.488Z,97.13
2018-04-08T05:10:00.495Z,97.22
2018-04-08T05:11:00.245Z,97.41
2018-04-08T05:12:00.542Z,97.5
2018-04-08T05:13:01.118Z,97.13
2018-04-08T05:14:00.786Z,97.31
2018-04-08T05:15:01.290Z,97.13
2018-04-08T05:16:01.282Z,96.74
2018-04-08T05:17:01.290Z,96.26
2018-04-08T05:18:01.020Z,96.12
2018-04-08T05:19:01.543Z,96.41
2018-04-08T05:20:01.281Z,96.41
2018-04-08T05:21:01.584Z,96.51
2018-04-08T05:22:01.595Z,96.12
2018-04-08T05:23:01.716Z,96.22
2018-04-08T05:24:01.652Z,95.94
2018-04-08T05:25:01.868Z,95.65
2018-04-08T05:26:01.909Z,95.65
2018-04-08T05:27:01.624Z,95.46
2018-04-08T05:28:02.155Z,95.36
2018-04-08T05:29:01.925Z,95.36
2018-04-08T05:30:02.235Z,95.46
2018-04-08T05:31:02.848Z,95.17
2018-04-08T05:32:02.597Z,94.74
2018-04-08T05:33:02.896Z,94.84
2018-04-08T05:34:02.603Z,94.42
2018-04-08T05:35:03.536Z,94.56
2018-04-08T05:36:03.515Z,93.89
2018-04-08T05:37:03.219Z,93.79
2018-04-08T05:38:03.252Z,94.37
2018-04-08T05:39:03.564Z,93.98
2018-04-08T05:40:03.292Z,93.7
2018-04-08T05:41:04.009Z,92.74
2018-04-08T05:42:03.640Z,93.22
2018-04-08T05:43:03.913Z,92.65
2018-04-08T05:44:03.906Z,92.74
2018-04-08T05:45:04.221Z,92.5
2018-04-08T05:46:04.164Z,91.27
2018-04-08T05:47:04.222Z,88.55
2018-04-08T05:48:04.212Z,86.06
2018-04-08T05:49:04.194Z,83.43
2018-04-08T05:50:04.545Z,81.18
2018-04-08T05:51:04.451Z,79.79
2018-04-08T05:52:04.638Z,79.73
2018-04-08T05:53:05.280Z,76.81
2018-04-08T05:54:04.985Z,75.47
2018-04-08T05:55:05.306Z,74.65
2018-04-08T05:56:05.403Z,74.65
2018-04-08T05:57:05.811Z,73.44
2018-04-08T05:58:05.869Z,72.48
2018-04-08T05:59:05.952Z,72.03
2018-04-08T06:00:25.368Z,71.81
2018-04-08T06:01:25.261Z,71.33
2018-04-08T06:02:25.005Z,70.41
2018-04-08T06:03:25.567Z,69.96
2018-04-08T06:04:25.616Z,69.29
2018-04-08T06:05:25.608Z,68.91
2018-04-08T06:06:25.675Z,68.18
2018-04-08T06:07:25.762Z,67.41
2018-04-08T06:08:25.440Z,66.93
2018-04-08T06:09:25.460Z,66.55
2018-04-08T06:10:25.789Z,66.74
2018-04-08T06:11:25.826Z,65.36
2018-04-08T06:12:25.899Z,64.5
2018-04-08T06:13:26.194Z,63.76
2018-04-08T06:14:26.224Z,62.71
2018-04-08T06:15:26.048Z,63.19
2018-04-08T06:16:26.340Z,62.52
2018-04-08T06:17:26.601Z,62.26
2018-04-08T06:18:27.640Z,62.16
2018-04-08T06:19:27.128Z,61.58
2018-04-08T06:20:27.485Z,61.4
2018-04-08T06:21:27.455Z,61.49
2018-04-08T06:22:27.492Z,61.23
2018-04-08T06:23:28.081Z,60.27
2018-04-08T06:24:28.070Z,59.72
2018-04-08T06:25:28.314Z,59.63
2018-04-08T06:26:28.009Z,59.82
2018-04-08T06:27:28.172Z,59.89
2018-04-08T06:28:27.419Z,58.37
2018-04-08T06:29:27.495Z,57.83
2018-04-08T06:30:28.456Z,57.47
2018-04-08T06:31:28.089Z,57.25
2018-04-08T06:32:27.846Z,57.25
2018-04-08T06:33:27.870Z,56.87
2018-04-08T06:34:27.962Z,56.73
2018-04-08T06:35:27.928Z,56.35
2018-04-08T06:36:27.678Z,55.93
2018-04-08T06:37:28.002Z,56.51
2018-04-08T06:38:28.032Z,56.51
2018-04-08T06:39:28.056Z,56.7
2018-04-08T06:40:28.094Z,56.41
2018-04-08T06:41:27.854Z,56.51
2018-04-08T06:42:28.222Z,56.12
2018-04-08T06:43:28.216Z,55.29
2018-04-08T06:44:28.556Z,54.74
2018-04-08T06:45:28.573Z,54.9
2018-04-08T06:46:28.613Z,55.38
2018-04-08T06:47:28.658Z,55.83
2018-04-08T06:48:28.723Z,55.93
2018-04-08T06:49:28.825Z,55.93
2018-04-08T06:50:29.108Z,55.93
2018-04-08T06:51:28.862Z,56.03
2018-04-08T06:52:29.320Z,55.83
2018-04-08T06:53:29.361Z,55.67
2018-04-08T06:54:28.992Z,55.65
2018-04-08T06:55:29.012Z,55.29
2018-04-08T06:56:29.880Z,55.19
2018-04-08T06:57:29.440Z,54.93
2018-04-08T06:58:29.465Z,53.48
2018-04-08T06:59:29.254Z,52.73
2018-04-08T07:00:29.759Z,52.47
2018-04-08T07:01:29.803Z,53.13
2018-04-08T07:02:30.124Z,53.22
2018-04-08T07:03:30.215Z,53.41
2018-04-08T07:04:29.887Z,52.86
2018-04-08T07:05:30.646Z,52.09
2018-04-08T07:06:30.607Z,51.07
2018-04-08T07:07:30.687Z,50.69
2018-04-08T07:08:30.703Z,50.79
2018-04-08T07:09:30.478Z,50.89
2018-04-08T07:10:30.754Z,51.03
2018-04-08T07:11:31.044Z,50.89
2018-04-08T07:12:30.785Z,49.92
2018-04-08T07:13:30.856Z,49.95
2018-04-08T07:14:31.687Z,48.74
2018-04-08T07:15:32.000Z,48.52
2018-04-08T07:16:31.142Z,48.52
2018-04-08T07:17:31.546Z,48.54
2018-04-08T07:18:31.425Z,48.81
2018-04-08T07:19:31.811Z,49.65
2018-04-08T07:20:32.127Z,50.21
2018-04-08T07:21:32.309Z,50.5
2018-04-08T07:22:32.352Z,50.96
2018-04-08T07:23:32.728Z,50.86
2018-04-08T07:24:33.309Z,50.86
2018-04-08T07:25:32.951Z,50.31
2018-04-08T07:26:33.696Z,49.82
2018-04-08T07:27:33.431Z,49.53
2018-04-08T07:28:33.642Z,49.63
2018-04-08T07:29:33.939Z,49.05
2018-04-08T07:30:33.695Z,49.53
2018-04-08T07:31:34.225Z,49.24
2018-04-08T07:32:34.108Z,49.34
2018-04-08T07:33:34.457Z,48.88
2018-04-08T07:34:34.635Z,48.39
2018-04-08T07:35:34.649Z,48.59
2018-04-08T07:36:34.406Z,48.69
2018-04-08T07:37:34.716Z,48.39
2018-04-08T07:38:35.159Z,47.19
2018-04-08T07:39:34.878Z,46.63
2018-04-08T07:40:35.224Z,46.44
2018-04-08T07:41:35.286Z,46.44
2018-04-08T07:42:35.552Z,46.15
2018-04-08T07:43:35.857Z,46.53
2018-04-08T07:44:35.908Z,47
2018-04-08T07:45:35.629Z,46.42
2018-04-08T07:46:36.012Z,46.9
2018-04-08T07:47:36.036Z,46.42
2018-04-08T07:48:36.460Z,45.86
2018-04-08T07:49:36.483Z,44.84
2018-04-08T07:50:36.580Z,44.64
2018-04-08T07:51:36.278Z,44.01
2018-04-08T07:52:37.032Z,43.62
2018-04-08T07:53:37.305Z,44.01
2018-04-08T07:54:37.219Z,43.72
2018-04-08T07:55:37.127Z,43.7
2018-04-08T07:56:37.177Z,43.99
2018-04-08T07:57:37.268Z,44.54
2018-04-08T07:58:37.012Z,44.93
2018-04-08T07:59:37.333Z,43.77
2018-04-08T08:00:37.433Z,43.7
2018-04-08T08:01:37.426Z,43.6
2018-04-08T08:02:37.585Z,43.6
2018-04-08T08:03:37.426Z,43.5
2018-04-08T08:04:38.003Z,43.6
2018-04-08T08:05:37.795Z,43.99
2018-04-08T08:06:38.310Z,43.41
2018-04-08T08:07:38.547Z,43.02
2018-04-08T08:08:38.549Z,42.48
2018-04-08T08:09:39.024Z,41.72
2018-04-08T08:10:38.763Z,41.26
2018-04-08T08:11:39.065Z,39.84
2018-04-08T08:12:38.902Z,39.18
2018-04-08T08:13:38.889Z,39.1
2018-04-08T08:14:39.299Z,39.47
2018-04-08T08:15:39.283Z,39.94
2018-04-08T08:16:39.088Z,40.77
2018-04-08T08:17:39.585Z,41.33
2018-04-08T08:18:39.634Z,41.24
2018-04-08T08:19:39.624Z,41.61
2018-04-08T08:20:40.140Z,41.24
2018-04-08T08:21:39.882Z,41.31
2018-04-08T08:22:40.240Z,41.41
2018-04-08T08:23:40.288Z,41.61
2018-04-08T08:24:40.296Z,41.8
2018-04-08T08:25:40.060Z,41.43
2018-04-08T08:26:40.288Z,40.77
2018-04-08T08:27:40.829Z,40.03
2018-04-08T08:28:41.117Z,39.65
2018-04-08T08:29:41.121Z,40.21
2018-04-08T08:30:41.237Z,39.92
2018-04-08T08:31:40.920Z,39.75
2018-04-08T08:32:41.414Z,38.42
2018-04-08T08:33:41.459Z,38.54
2018-04-08T08:34:41.525Z,37.85
2018-04-08T08:35:42.137Z,37.87
2018-04-08T08:36:42.563Z,37.6
2018-04-08T08:37:42.023Z,37.99
2018-04-08T08:38:43.284Z,37.66
2018-04-08T08:39:43.123Z,37.85
2018-04-08T08:40:42.734Z,38.23
2018-04-08T08:41:43.085Z,39.04
2018-04-08T08:42:44.078Z,39.16
2018-04-08T08:43:43.166Z,39.08
2018-04-08T08:44:43.445Z,38.52
2018-04-08T08:45:44.554Z,37.76
2018-04-08T08:46:44.520Z,37.87
2018-04-08T08:47:44.570Z,37.76
2018-04-08T08:48:45.130Z,37.1
2018-04-08T08:49:44.921Z,37.02
2018-04-08T08:50:45.037Z,37.89
2018-04-08T08:51:44.811Z,38.62
2018-04-08T08:52:45.288Z,38.52
2018-04-08T08:53:44.995Z,39.29
2018-04-08T08:54:45.025Z,39.28
2018-04-08T08:55:45.475Z,38.7
2018-04-08T08:56:45.571Z,37.95
2018-04-08T08:57:45.612Z,37.95
2018-04-08T08:58:46.022Z,37.87
2018-04-08T08:59:45.645Z,37.77
2018-04-08T09:00:45.786Z,37.33
2018-04-08T09:01:45.919Z,36.18
2018-04-08T09:02:45.812Z,36.08
2018-04-08T09:03:46.196Z,36.08
2018-04-08T09:04:46.711Z,36.35
2018-04-08T09:05:46.773Z,36.43
2018-04-08T09:06:46.990Z,36.25
2018-04-08T09:07:47.226Z,36.27
2018-04-08T09:08:47.262Z,36.18
2018-04-08T09:09:47.403Z,35.61
2018-04-08T09:10:47.832Z,35.72
2018-04-08T09:11:48.382Z,35.53
2018-04-08T09:12:48.335Z,35.92
2018-04-08T09:13:48.804Z,36.19
2018-04-08T09:14:48.686Z,36.18
2018-04-08T09:15:49.095Z,36.19
2018-04-08T09:16:49.517Z,36.74
2018-04-08T09:17:49.951Z,36.55
2018-04-08T09:18:50.125Z,36.47
2018-04-08T09:19:50.156Z,36.37
2018-04-08T09:20:50.570Z,36.66
2018-04-08T09:21:50.451Z,35.9
2018-04-08T09:22:51.026Z,36
2018-04-08T09:23:51.084Z,35.88
2018-04-08T09:24:51.247Z,36.1
2018-04-08T09:25:51.610Z,35.82
2018-04-08T09:26:51.345Z,36.21
2018-04-08T09:27:51.691Z,36.66
2018-04-08T09:28:51.714Z,36.57
2018-04-08T09:29:51.718Z,36.18
2018-04-08T09:30:51.761Z,36.18
2018-04-08T09:31:52.521Z,36.39
2018-04-08T09:32:51.968Z,36.18
2018-04-08T09:33:52.260Z,36.55
2018-04-08T09:34:52.497Z,37.12
2018-04-08T09:35:52.527Z,37.7
2018-04-08T09:36:52.655Z,37.39
2018-04-08T09:37:53.386Z,37.89
2018-04-08T09:38:53.023Z,37.5
2018-04-08T09:39:53.327Z,37.97
2018-04-08T09:40:53.559Z,38.05
2018-04-08T09:41:54.002Z,37.27
2018-04-08T09:42:54.431Z,37.21
2018-04-08T09:43:54.888Z,36.82
2018-04-08T09:44:55.044Z,36.82
2018-04-08T09:45:55.110Z,36.18
2018-04-08T09:46:55.434Z,36.08
2018-04-08T09:47:55.286Z,36.18
2018-04-08T09:48:55.649Z,36.27
2018-04-08T09:49:55.892Z,36.86
2018-04-08T09:50:56.022Z,37.58
2018-04-08T09:51:55.790Z,37.29
2018-04-08T09:52:56.114Z,37.12
2018-04-08T09:53:56.141Z,37.6
2018-04-08T09:54:56.178Z,37.97
2018-04-08T09:55:56.227Z,37.79
2018-04-08T09:56:56.249Z,38.32
2018-04-08T09:57:56.510Z,38.03
2018-04-08T09:58:57.030Z,38.52
2018-04-08T09:59:57.055Z,38.81
2018-04-08T10:00:57.745Z,39.28
2018-04-08T10:01:58.103Z,39.57
2018-04-08T10:02:58.153Z,39.65
2018-04-08T10:03:58.276Z,39.45
2018-04-08T10:04:59.805Z,39.47
2018-04-08T10:05:57.992Z,39.1
2018-04-08T10:06:58.383Z,38.6
2018-04-08T10:07:57.578Z,38.71
2018-04-08T10:08:58.141Z,38.15
2018-04-08T10:09:58.276Z,38.44
2018-04-08T10:10:58.153Z,38.62
2018-04-08T10:11:58.234Z,38.64
2018-04-08T10:12:58.553Z,39.1
2018-04-08T10:13:58.286Z,39.47
2018-04-08T10:14:58.094Z,40.19
2018-04-08T10:15:58.552Z,39.92
2018-04-08T10:16:59.256Z,39.82
2018-04-08T10:17:58.318Z,39.94
2018-04-08T10:18:58.593Z,39.08
2018-04-08T10:19:58.772Z,39.29
2018-04-08T10:20:58.552Z,38.44
2018-04-08T10:21:58.801Z,38.54
2018-04-08T10:22:58.852Z,38.91
2018-04-08T10:23:58.663Z,39.57
2018-04-08T10:24:58.904Z,39.75
2018-04-08T10:25:58.605Z,40.31
2018-04-08T10:26:58.844Z,39.92
2018-04-08T10:27:58.752Z,39.9
2018-04-08T10:28:58.486Z,40.21
2018-04-08T10:29:59.508Z,40.46
2018-04-08T10:30:59.132Z,40.19
2018-04-08T10:31:59.599Z,40.01
2018-04-08T10:32:59.525Z,40
2018-04-08T10:33:59.513Z,40.77
2018-04-08T10:34:59.778Z,40.85
2018-04-08T10:35:59.090Z,41.43
2018-04-08T10:36:59.773Z,41.8
2018-04-08T10:37:59.161Z,41.8
2018-04-08T10:38:59.733Z,41.53
2018-04-08T10:39:59.350Z,41.33
2018-04-08T10:40:59.517Z,41.43
2018-04-08T10:41:59.300Z,41.24
2018-04-08T10:42:59.413Z,41.43
2018-04-08T10:43:59.331Z,41.72
2018-04-08T10:44:59.612Z,41.33
2018-04-08T10:45:59.939Z,41.51
2018-04-08T10:46:59.262Z,41.82
2018-04-08T10:47:59.208Z,42.11
2018-04-08T10:48:59.493Z,42.19
2018-04-08T10:49:59.570Z,42.38
2018-04-08T10:50:59.830Z,42.94
2018-04-08T10:51:59.621Z,43.48
2018-04-08T10:52:59.825Z,43.79
2018-04-08T10:54:00.522Z,43.5
2018-04-08T10:55:00.038Z,42.85
2018-04-08T10:56:00.589Z,43.13
2018-04-08T10:56:59.922Z,42.48
2018-04-08T10:57:59.344Z,42.4
2018-04-08T10:58:59.898Z,42.13
2018-04-08T11:00:00.782Z,41.74
2018-04-08T11:00:59.193Z,42.75
2018-04-08T11:01:59.216Z,43.43
2018-04-08T11:02:59.597Z,43.79
2018-04-08T11:03:59.624Z,44.18
2018-04-08T11:04:59.442Z,43.99
2018-04-08T11:05:59.736Z,43.79
2018-04-08T11:07:00.048Z,43.79
2018-04-08T11:08:00.082Z,44.06
2018-04-08T11:08:59.937Z,44.81
2018-04-08T11:09:59.989Z,45.18
2018-04-08T11:11:00.617Z,45.28
2018-04-08T11:12:01.045Z,45.28
2018-04-08T11:13:01.185Z,45.45
2018-04-08T11:14:00.818Z,45.74
2018-04-08T11:15:01.208Z,46.42
2018-04-08T11:16:01.290Z,46.49
2018-04-08T11:17:01.243Z,46.49
2018-04-08T11:18:01.402Z,47.14
2018-04-08T11:19:01.866Z,48.71
2018-04-08T11:20:01.609Z,47.26
2018-04-08T11:21:02.018Z,47.16
2018-04-08T11:22:02.240Z,47.26
2018-04-08T11:23:01.936Z,47.45
2018-04-08T11:24:02.227Z,48.11
2018-04-08T11:25:02.261Z,48.49
2018-04-08T11:26:02.542Z,48.49
2018-04-08T11:27:02.663Z,48.39
2018-04-08T11:28:02.567Z,48.57
2018-04-08T11:29:02.784Z,48.47
2018-04-08T11:30:03.199Z,48.66
2018-04-08T11:31:03.084Z,48.95
2018-04-08T11:32:03.282Z,49.44
2018-04-08T11:33:03.721Z,49.6
2018-04-08T11:34:03.626Z,50.26
2018-04-08T11:35:03.930Z,50.64
2018-04-08T11:36:04.231Z,50.93
2018-04-08T11:37:04.034Z,50.74
2018-04-08T11:38:04.043Z,51.12
2018-04-08T11:39:04.071Z,51.12
2018-04-08T11:40:04.273Z,51.1
2018-04-08T11:41:04.276Z,51.1
2018-04-08T11:42:04.781Z,51
2018-04-08T11:43:04.544Z,51.29
2018-04-08T11:44:05.520Z,51.46
2018-04-08T11:45:05.650Z,51.94
2018-04-08T11:46:05.360Z,52.71
2018-04-08T11:47:05.381Z,52.71
2018-04-08T11:48:05.859Z,52.33
2018-04-08T11:49:05.522Z,52.61
2018-04-08T11:50:05.247Z,52.81
2018-04-08T11:51:05.648Z,52.23
2018-04-08T11:52:05.410Z,52.61
2018-04-08T11:53:05.720Z,52.97
2018-04-08T11:54:05.916Z,53.65
2018-04-08T11:55:06.091Z,53.91
2018-04-08T11:56:05.788Z,54.56
2018-04-08T11:57:06.094Z,54.75
2018-04-08T11:58:06.279Z,54.27
2018-04-08T11:59:06.345Z,54.75
2018-04-08T12:00:18.849Z,55.04
2018-04-08T12:01:19.220Z,55.01
2018-04-08T12:02:18.912Z,55.33
2018-04-08T12:03:19.327Z,55.43
2018-04-08T12:04:19.467Z,55.23
2018-04-08T12:05:19.915Z,55.33
2018-04-08T12:06:19.973Z,55.52
2018-04-08T12:07:20.295Z,54.85
2018-04-08T12:08:20.129Z,54.85
2018-04-08T12:09:19.742Z,54.94
2018-04-08T12:10:19.791Z,55.33
2018-04-08T12:11:20.169Z,54.82
2018-04-08T12:12:20.597Z,54.94
2018-04-08T12:13:21.086Z,54.72
2018-04-08T12:14:20.596Z,54.63
2018-04-08T12:15:21.427Z,54.91
2018-04-08T12:16:20.689Z,55.01
2018-04-08T12:17:20.862Z,55.2
2018-04-08T12:18:21.166Z,55.68
2018-04-08T12:19:21.201Z,55.68
2018-04-08T12:20:21.342Z,55.59
2018-04-08T12:21:21.123Z,55.68
2018-04-08T12:22:21.413Z,55.49
2018-04-08T12:23:21.813Z,55.78
2018-04-08T12:24:22.230Z,56.16
2018-04-08T12:25:22.575Z,56.16
2018-04-08T12:26:22.507Z,56.16
2018-04-08T12:27:22.799Z,55.98
2018-04-08T12:28:22.846Z,55.59
2018-04-08T12:29:23.152Z,55.49
2018-04-08T12:30:22.914Z,55.4
2018-04-08T12:31:23.252Z,54.91
2018-04-08T12:32:23.759Z,55.4
2018-04-08T12:33:23.696Z,55.59
2018-04-08T12:34:23.597Z,55.98
2018-04-08T12:35:23.631Z,56.26
2018-04-08T12:36:24.140Z,56.14
2018-04-08T12:37:23.946Z,55.85
2018-04-08T12:38:25.278Z,56.04
2018-04-08T12:39:24.873Z,56.04
2018-04-08T12:40:24.980Z,56.71
2018-04-08T12:41:25.033Z,57.39
2018-04-08T12:42:25.455Z,56.84
2018-04-08T12:43:25.525Z,56.26
2018-04-08T12:44:25.503Z,56.26
2018-04-08T12:45:25.545Z,56.16
2018-04-08T12:46:25.558Z,55.98
2018-04-08T12:47:25.341Z,56.16
2018-04-08T12:48:25.358Z,55.98
2018-04-08T12:49:25.401Z,56.45
2018-04-08T12:50:25.726Z,56.16
2018-04-08T12:51:26.156Z,56.45
2018-04-08T12:52:26.057Z,56.93
2018-04-08T12:53:26.292Z,57.03
2018-04-08T12:54:26.962Z,57.03
2018-04-08T12:55:27.074Z,57.13
2018-04-08T12:56:26.927Z,57.22
2018-04-08T12:57:26.857Z,57.13
2018-04-08T12:58:26.457Z,57.22